Flight Track Log - Related Links

Times and Time Zones

All times are in EDT time to prevent confusion due to time zone crossing. See the UAL1426 flight status page for this flight to view local times or setup timezone preferences in your user account.

Time Position Orientation Groundspeed Altitude Reporting Facility
EDT Latitude Longitude Course Direction KTS MPH feet Rate Location/Type
Fri 08:30:46 PM 29.9572 -95.3392 151° Southeast 179 206 900  Level Houston Center
Fri 08:31:41 PM 29.9233 -95.2928 130° Southeast 226 260 2,300 1,826 Climbing Houston Center
Fri 08:32:18 PM 29.9061 -95.2653 126° Southeast 217 250 3,700 1,030 Climbing Houston Center
Fri 08:33:20 PM 29.8589 -95.1994 130° Southeast 257 296 4,000 968 Climbing Houston Center
Fri 08:34:22 PM 29.7975 -95.1189 131° Southeast 274 315 5,700 2,323 Climbing Houston Center
Fri 08:35:00 PM 29.4835 -95.0112 150° Southeast  Level FlightAware Approximate
Fri 08:35:24 PM 29.7425 -95.0536 134° Southeast 278 320 8,800  Level Houston Center
Fri 08:36:00 PM 29.3827 -94.9475 151° Southeast  Level FlightAware Approximate
Fri 08:36:26 PM 29.6647 -95.0167 158° South 297 342 11,500  Level Houston Center
Fri 08:37:28 PM 29.5711 -94.9814 162° South 349 402 13,300 1,645 Climbing Houston Center
Fri 08:38:30 PM 29.4681 -94.9428 162° South 381 438 14,900 1,790 Climbing Houston Center
Fri 08:39:32 PM 29.3575 -94.9006 162° South 410 472 17,000 2,000 Climbing Houston Center
Fri 08:40:33 PM 29.2456 -94.8533 160° South 424 488 19,000 1,805 Climbing Houston Center
Fri 08:41:35 PM 29.1422 -94.7811 149° Southeast 432 497 20,700 1,597 Climbing Houston Center
Fri 08:42:37 PM 29.0336 -94.7078 149° Southeast 447 514 22,300 1,548 Climbing Houston Center
Fri 08:43:39 PM 28.8992 -94.6167 149° Southeast 464 534 23,900 1,403 Climbing Houston Center
Fri 08:44:41 PM 28.7839 -94.5389 149° Southeast 476 548 25,200 1,268 Climbing Houston Center
Fri 08:45:42 PM 28.6667 -94.4594 149° Southeast 486 559 26,500 1,220 Climbing Houston Center
Fri 08:46:44 PM 28.5464 -94.3800 150° Southeast 495 570 27,700 1,210 Climbing Houston Center
Fri 08:47:46 PM 28.4269 -94.3006 150° Southeast 498 573 29,000 1,355 Climbing Houston Center
Fri 08:48:48 PM 28.3075 -94.2197 149° Southeast 498 573 30,500 1,268 Climbing Houston Center
Fri 08:49:49 PM 28.1878 -94.1400 150° Southeast 498 573 31,600 1,268 Climbing Houston Center
Fri 08:50:51 PM 28.0586 -94.0231 141° Southeast 494 568 33,100 1,355 Climbing Houston Center
Fri 08:51:53 PM 27.9544 -93.9233 140° Southeast 492 566 34,400 927 Climbing Houston Center
Fri 08:52:54 PM 27.8508 -93.8239 140° Southeast 489 563 35,000 293 Climbing Houston Center
Fri 08:53:56 PM 27.7456 -93.7258 140° Southeast 488 562 35,000  Level Houston Center
Fri 08:54:58 PM 27.6419 -93.6267 140° Southeast 488 562 35,000  Level Houston Center
Fri 08:55:59 PM 27.5389 -93.5286 140° Southeast 486 559 35,000  Level Houston Center
Fri 08:57:01 PM 27.4347 -93.4289 140° Southeast 490 564 35,000  Level Houston Center
Fri 08:58:03 PM 27.3100 -93.3139 141° Southeast 485 558 35,000  Level Houston Center
Fri 08:59:04 PM 27.2056 -93.2169 140° Southeast 486 559 35,000  Level Houston Center
Fri 09:00:06 PM 27.1008 -93.1194 140° Southeast 488 562 35,000  Level Houston Center
Fri 09:02:00 PM 26.9265 -92.9534 140° Southeast  Level FlightAware Approximate
Fri 09:09:00 PM 26.2171 -92.4499 149° Southeast  Level FlightAware Approximate
Fri 09:10:00 PM 26.1133 -92.3821 150° Southeast  Level FlightAware Approximate
Fri 09:11:00 PM 26.0094 -92.3145 150° Southeast  Level FlightAware Approximate
Fri 09:12:00 PM 25.9056 -92.2469 150° Southeast  Level FlightAware Approximate
Fri 09:13:00 PM 25.8011 -92.1806 152° Southeast  Level FlightAware Approximate
Fri 09:14:00 PM 25.6952 -92.1171 152° Southeast  Level FlightAware Approximate
Fri 09:15:00 PM 25.5913 -92.0500 149° Southeast  Level FlightAware Approximate
Fri 09:16:00 PM 25.4881 -91.9815 149° Southeast  Level FlightAware Approximate
Fri 09:17:00 PM 25.3848 -91.9132 149° Southeast  Level FlightAware Approximate
Fri 09:18:00 PM 25.2826 -91.8457 149° Southeast  Level FlightAware Approximate
Fri 09:19:00 PM 25.1805 -91.7784 149° Southeast  Level FlightAware Approximate
Fri 09:20:00 PM 25.0783 -91.7112 149° Southeast  Level FlightAware Approximate
Fri 09:21:00 PM 24.9760 -91.6441 149° Southeast  Level FlightAware Approximate
Fri 09:22:00 PM 24.8738 -91.5771 149° Southeast  Level FlightAware Approximate
Fri 09:23:00 PM 24.7715 -91.5102 149° Southeast  Level FlightAware Approximate
Fri 09:24:00 PM 24.6692 -91.4435 149° Southeast  Level FlightAware Approximate
Fri 09:25:00 PM 24.5668 -91.3768 149° Southeast  Level FlightAware Approximate
Fri 09:26:00 PM 24.4623 -91.3148 156° South  Level FlightAware Approximate
Fri 09:27:00 PM 24.3537 -91.2614 156° South  Level FlightAware Approximate
Fri 09:28:00 PM 24.2452 -91.2081 156° South  Level FlightAware Approximate
Fri 09:29:00 PM 24.1366 -91.1548 156° South  Level FlightAware Approximate
Fri 09:30:00 PM 24.0280 -91.1017 156° South  Level FlightAware Approximate
Fri 09:31:00 PM 23.9193 -91.0487 156° South  Level FlightAware Approximate
Fri 09:32:00 PM 23.8107 -90.9957 156° South  Level FlightAware Approximate
Fri 09:33:00 PM 23.7020 -90.9430 157° South  Level FlightAware Approximate
Fri 09:34:00 PM 23.5928 -90.8915 157° South  Level FlightAware Approximate
Fri 09:35:00 PM 23.4836 -90.8400 157° South  Level FlightAware Approximate
Fri 09:36:00 PM 23.3744 -90.7886 157° South  Level FlightAware Approximate
Fri 09:37:00 PM 23.2652 -90.7373 157° South  Level FlightAware Approximate
Fri 09:38:00 PM 23.1559 -90.6861 157° South  Level FlightAware Approximate
Fri 09:39:00 PM 23.0471 -90.6338 156° South  Level FlightAware Approximate
Fri 09:40:00 PM 22.9384 -90.5816 156° South  Level FlightAware Approximate
Fri 09:41:00 PM 22.8296 -90.5294 156° South  Level FlightAware Approximate
Fri 09:42:00 PM 22.7208 -90.4771 155° Southeast  Level FlightAware Approximate
Fri 09:43:00 PM 22.6128 -90.4231 155° Southeast  Level FlightAware Approximate
Fri 09:44:00 PM 22.5043 -90.3704 158° South  Level FlightAware Approximate
Fri 09:45:00 PM 22.3943 -90.3215 158° South  Level FlightAware Approximate
Fri 09:46:00 PM 22.2850 -90.2707 157° South  Level FlightAware Approximate
Fri 09:47:00 PM 22.1758 -90.2198 157° South  Level FlightAware Approximate
Fri 09:48:00 PM 22.0666 -90.1689 157° South  Level FlightAware Approximate
Fri 09:49:00 PM 21.9574 -90.1181 157° South  Level FlightAware Approximate
Fri 09:50:00 PM 21.8481 -90.0674 157° South  Level FlightAware Approximate
Fri 09:51:00 PM 21.7389 -90.0167 157° South  Level FlightAware Approximate
Fri 09:52:00 PM 21.6288 -89.9682 160° South  Level FlightAware Approximate
Fri 09:53:00 PM 21.5173 -89.9236 160° South  Level FlightAware Approximate
Fri 09:54:00 PM 21.4090 -89.8711 155° Southeast  Level FlightAware Approximate
Fri 09:55:00 PM 21.3011 -89.8172 155° Southeast  Level FlightAware Approximate
Fri 09:56:00 PM 21.1912 -89.7683 157° South  Level FlightAware Approximate
Fri 09:57:00 PM 21.0840 -89.7173 137° Southeast  Level FlightAware Approximate
Fri 09:58:00 PM 20.9736 -89.6701 155° Southeast  Level FlightAware Approximate
Fri 09:59:00 PM 20.9370 -89.6577 180° South  Level Estimated
Fri 10:00:00 PM 20.9370 -89.6577 180° South  Level Estimated
Fri 10:01:00 PM 20.9370 -89.6577 180° South  Level Estimated

Login

Don't have an account? Register now (free) for customized features, flight alerts, and more!